Create Custom Reports and Graphics: Custom Report

Stanford Met Tower

Current Conditions

2/16/20 1:15 AM (-08:00)
Updated Every 15 Minutes
Temp 42.5 °F   1.4
RH 85 %   10
Dew Pt 38.3 °F   1.4
Wind Dir S | 187 °
Wind Spd 6.1 mph   1.9
Wind Gust 7.9 mph   1.1
Solar Rad 0 W/m2   0
Daily Min Temp 40.6 °F   0.4
Daily Max Temp 43.5 °F   1.0
Daily Max Wind 7.9 mph   1.0
Daily Rain 0.00 In
Min Temp Yest 36.9 °F
Max Temp Yest 64.7 °F
Max Wind Yest 12.7 mph
Rain Yest 0.00 In
Seasonal Rainfall 4.39 In

Last 48 Hours

Stanford Met Tower

Hourly Data | America/Los_Angeles
as of 2/16/20 3:07 PM PST
Date & Time Temp (°F) Temp Inversion (°F) RH (%) Dew Pt (°F) Wind Dir (°) Wind Spd (mph) Wind Gust (mph) Latest Rain (In) ETo Hr (in) ETo 2pm (In) Daily Rain (In) Daily Min Temp (°F) Daily Max Temp (°F)
2/16/20 - 0100 41.9 2.3 88 38.6 SSW | 194 3.1 6.8 0.00 0.000 0.08 0.00 40.6 43.5
2/16/20 - 0000 42.7 3.1 88 39.3 SSW | 206 4.2 6.9 0.00 0.000 0.08 0.00 36.9 64.7
2/15/20 - 2300 43.9 1.6 88 40.7 SSW | 197 2.6 7.3 0.00 0.000 0.08 0.00 36.9 64.7
2/15/20 - 2200 45.6 1.9 89 42.5 SW | 227 3.2 8.0 0.00 0.000 0.08 0.00 36.9 64.7
2/15/20 - 2100 46.6 2.6 89 43.5 SSW | 201 3.5 6.2 0.00 0.000 0.08 0.00 36.9 64.7
2/15/20 - 2000 49.0 2.2 86 44.9 SW | 222 2.7 7.3 0.00 0.000 0.08 0.00 36.9 64.7
2/15/20 - 1900 51.6 3.7 79 45.3 W | 272 2.9 7.6 0.00 0.000 0.08 0.00 36.9 64.7
2/15/20 - 1800 59.6 1.2 58 44.8 WNW | 302 3.4 7.4 0.00 0.000 0.08 0.00 36.9 64.7
2/15/20 - 1700 61.5 -0.1 53 44.4 N | 350 4.0 9.5 0.00 0.002 0.08 0.00 36.9 64.7
2/15/20 - 1600 62.1 -2.7 61 48.6 N | 2 6.1 12.7 0.00 0.005 0.08 0.00 36.9 64.7
2/15/20 - 1500 62.7 -4.5 61 49.2 NNW | 348 4.9 11.2 0.00 0.010 0.08 0.00 36.9 64.7
2/15/20 - 1400 63.1 -6.2 64 50.6 N | 11 4.3 10.2 0.00 0.012 0.08 0.00 36.9 63.7
2/15/20 - 1300 61.5 -6.7 63 48.7 NNE | 19 3.3 8.6 0.00 0.013 0.06 0.00 36.9 63.0
2/15/20 - 1200 60.4 -5.2 63 47.6 NNE | 21 2.7 7.7 0.00 0.013 0.06 0.00 36.9 61.0
2/15/20 - 1100 57.6 -2.1 67 46.9 NNE | 23 2.8 6.8 0.00 0.010 0.06 0.00 36.9 57.8
2/15/20 - 1000 53.9 -3.2 81 48.3 NNW | 331 2.8 6.6 0.00 0.006 0.06 0.00 36.9 54.1
2/15/20 - 0900 50.9 0.2 88 47.6 WSW | 241 2.9 6.6 0.00 0.003 0.06 0.00 36.9 51.6
2/15/20 - 0800 42.4 1.4 98 42.0 SW | 218 4.3 8.6 0.00 0.000 0.06 0.00 36.9 43.0
2/15/20 - 0700 38.2 2.6 98 37.8 W | 261 3.3 5.6 0.00 0.000 0.06 0.00 36.9 42.5
2/15/20 - 0600 37.3 3.9 97 36.6 W | 276 3.9 5.5 0.00 0.000 0.06 0.00 37.0 42.5
2/15/20 - 0500 37.7 3.6 97 37.0 SSW | 205 3.6 6.1 0.00 0.000 0.06 0.00 37.6 42.5
2/15/20 - 0400 39.2 3.2 98 38.6 SSW | 200 4.2 6.9 0.00 0.000 0.06 0.00 38.1 42.5
2/15/20 - 0300 40.0 4.0 96 39.1 SSW | 199 4.4 8.1 0.00 0.000 0.06 0.00 39.6 42.5
2/15/20 - 0200 41.6 1.4 97 40.9 SSW | 203 4.2 8.1 0.00 0.000 0.06 0.00 39.8 42.5
2/15/20 - 0100 41.5 0.8 96 40.4 SSW | 199 5.6 8.8 0.00 0.000 0.06 0.00 40.2 42.5
2/15/20 - 0000 42.3 1.0 94 40.8 SSW | 213 5.2 9.0 0.00 0.000 0.06 0.00 40.3 61.7
2/14/20 - 2300 40.4 1.5 94 38.9 SSW | 207 4.4 7.0 0.00 0.000 0.06 0.00 40.4 61.7
2/14/20 - 2200 42.9 2.8 91 40.6 SW | 216 3.4 7.7 0.00 0.000 0.06 0.00 41.0 61.7
2/14/20 - 2100 45.0 2.6 90 42.2 SSW | 202 3.7 6.8 0.00 0.000 0.06 0.00 41.0 61.7
2/14/20 - 2000 47.9 1.0 85 43.5 SSW | 213 3.5 7.6 0.00 0.000 0.06 0.00 41.0 61.7
2/14/20 - 1900 49.4 3.8 84 44.8 SW | 233 1.0 3.7 0.00 0.000 0.06 0.00 41.0 61.7
2/14/20 - 1800 54.6 4.9 72 45.6 N | 2 2.2 6.0 0.00 0.000 0.06 0.00 41.0 61.7
2/14/20 - 1700 59.8 -0.5 58 44.8 NNW | 344 4.2 7.9 0.00 0.002 0.06 0.00 41.0 61.7
2/14/20 - 1600 60.9 -3.2 54 44.0 WNW | 293 2.3 7.2 0.00 0.006 0.06 0.00 41.0 61.7
2/14/20 - 1500 59.5 -4.1 58 45.0 NNW | 328 3.3 9.5 0.00 0.010 0.06 0.00 41.0 60.6
Max 63.1 4.9 98 50.6 - 6.1 12.7 0.00 0.013 0.08 0.00 41.0 64.7
Avg 49.6 0.5 81 43.3 - 3.6 7.6 0.00 0.003 0.07 - - -
Min 37.3 -6.7 53 36.6 - 1.0 3.7 0.00 0.000 0.06 0.00 36.9 42.5
Total - - - - - - - 0.00 0.092 - - - -
Calm: 0.0%
Calm: 0.0%